Time;durP1;ratioP1;P1;durP2;ratioP2;P2;SDS_P1;SDS_P2;PMS_P1;PMS_P2;Temp;Humidity;BMP_temperature;BMP_pressure;BME280_temperature;BME280_humidity;BME280_pressure;Samples;Min_cycle;Max_cycle;Signal;HPM_P1;HPM_P2
2023/04/25 00:01:03;;;;;;;17.02;7.15;;;;;;;8.97;66.21;101014.16;5064779;28;20029;-65
2023/04/25 00:03:29;;;;;;;16.63;5.53;;;;;;;8.96;66.41;101015.25;5059246;28;20484;-65
2023/04/25 00:05:56;;;;;;;17.63;5.72;;;;;;;9.00;65.76;101021.13;5050262;28;20028;-65
2023/04/25 00:08:22;;;;;;;15.18;5.50;;;;;;;8.98;65.67;101021.38;5048992;28;20036;-65
2023/04/25 00:10:48;;;;;;;13.18;5.70;;;;;;;8.96;66.01;101022.69;5049232;28;20400;-65
2023/04/25 00:13:14;;;;;;;11.18;5.50;;;;;;;8.94;66.54;101030.41;5049428;28;20481;-65
2023/04/25 00:15:41;;;;;;;15.52;6.15;;;;;;;8.97;66.43;101032.69;5048735;28;20061;-65
2023/04/25 00:18:07;;;;;;;15.05;5.75;;;;;;;8.94;65.68;101027.63;5053771;28;20025;-65
2023/04/25 00:20:32;;;;;;;12.90;5.65;;;;;;;8.91;66.16;101034.47;5069484;28;20502;-66
2023/04/25 00:22:57;;;;;;;19.13;6.38;;;;;;;8.91;66.49;101037.25;5064109;28;20040;-66
2023/04/25 00:25:23;;;;;;;15.55;6.00;;;;;;;8.92;65.82;101035.31;5073253;28;20063;-65
2023/04/25 00:27:48;;;;;;;16.45;6.28;;;;;;;8.92;66.14;101038.94;5072737;28;20089;-65
2023/04/25 00:30:14;;;;;;;19.15;6.32;;;;;;;8.91;66.63;101028.94;5063864;28;20110;-66
2023/04/25 00:32:39;;;;;;;13.50;5.95;;;;;;;8.87;66.59;101029.66;5071664;28;20479;-66
2023/04/25 00:35:05;;;;;;;13.43;5.95;;;;;;;8.88;66.13;101026.63;5054699;28;20029;-65
2023/04/25 00:37:31;;;;;;;15.13;6.03;;;;;;;8.88;66.54;101023.88;5052490;28;20029;-65
2023/04/25 00:39:57;;;;;;;19.23;5.90;;;;;;;8.87;66.08;101022.19;5053964;28;20044;-65
2023/04/25 00:42:24;;;;;;;19.50;5.85;;;;;;;8.83;66.01;101027.34;5053336;28;20028;-65
2023/04/25 00:44:49;;;;;;;12.52;5.38;;;;;;;8.82;66.44;101024.84;5052672;28;20542;-65
2023/04/25 00:47:15;;;;;;;12.20;5.57;;;;;;;8.81;66.42;101025.94;5059743;28;20064;-65
2023/04/25 00:49:40;;;;;;;14.63;5.40;;;;;;;8.80;66.44;101025.09;5071552;28;20145;-65
2023/04/25 00:52:12;;;;;;;15.40;6.28;;;;;;;8.77;66.88;101028.31;5051925;28;20060;-65
2023/04/25 00:54:38;;;;;;;14.63;5.68;;;;;;;8.77;66.66;101020.00;5051384;28;20036;-65
2023/04/25 00:57:06;;;;;;;13.30;5.90;;;;;;;8.78;66.42;101024.47;5055198;28;20049;-66
2023/04/25 00:59:32;;;;;;;16.48;5.88;;;;;;;8.76;66.86;101032.16;5052445;28;20044;-65
2023/04/25 01:01:58;;;;;;;18.35;6.45;;;;;;;8.78;66.77;101034.69;5052866;28;20029;-65
2023/04/25 01:04:23;;;;;;;18.58;6.32;;;;;;;8.76;67.11;101032.16;5051690;28;20133;-65
2023/04/25 01:06:49;;;;;;;15.38;5.63;;;;;;;8.77;66.72;101033.00;5053017;28;20040;-65
2023/04/25 01:09:14;;;;;;;14.68;6.15;;;;;;;8.77;67.00;101033.00;5049805;28;20029;-65
2023/04/25 01:11:40;;;;;;;18.17;6.70;;;;;;;8.75;66.96;101030.47;5062285;28;20420;-66
2023/04/25 01:14:05;;;;;;;16.60;6.60;;;;;;;8.73;67.13;101023.50;5073180;28;20031;-66
2023/04/25 01:16:31;;;;;;;14.65;5.57;;;;;;;8.72;66.89;101025.41;5081284;28;20594;-66
2023/04/25 01:18:57;;;;;;;15.88;6.28;;;;;;;8.69;66.76;101027.81;5090289;28;20032;-66
2023/04/25 01:21:22;;;;;;;15.85;6.30;;;;;;;8.65;66.95;101032.13;5088981;28;20032;-66
2023/04/25 01:23:48;;;;;;;17.95;6.07;;;;;;;8.66;66.45;101026.34;5074157;28;20032;-66
2023/04/25 01:26:13;;;;;;;15.68;5.97;;;;;;;8.62;66.62;101038.13;5090162;28;20039;-66
2023/04/25 01:28:42;;;;;;;13.73;5.85;;;;;;;8.60;67.14;101044.72;5091571;28;20489;-66
2023/04/25 01:31:09;;;;;;;16.45;6.30;;;;;;;8.57;66.92;101031.38;5074340;28;20036;-66
2023/04/25 01:33:34;;;;;;;14.57;6.22;;;;;;;8.57;66.82;101038.84;5071659;28;20099;-66
2023/04/25 01:35:59;;;;;;;13.40;5.97;;;;;;;8.59;67.23;101036.69;5088708;28;20501;-66
2023/04/25 01:38:25;;;;;;;15.48;6.80;;;;;;;8.56;66.94;101045.44;5089110;28;20621;-66
2023/04/25 01:40:51;;;;;;;15.20;6.30;;;;;;;8.56;67.21;101048.22;5085066;28;20032;-66
2023/04/25 01:43:17;;;;;;;18.00;6.50;;;;;;;8.55;67.32;101036.31;5072173;28;20563;-66
2023/04/25 01:45:42;;;;;;;13.63;6.30;;;;;;;8.59;66.72;101043.06;5087291;28;20067;-66
2023/04/25 01:48:09;;;;;;;14.50;6.63;;;;;;;8.54;66.64;101040.16;5091676;28;20027;-66
2023/04/25 01:50:34;;;;;;;15.32;7.25;;;;;;;8.54;67.21;101039.31;5083224;28;20403;-66
2023/04/25 01:53:00;;;;;;;16.13;6.32;;;;;;;8.52;66.90;101045.06;5090464;28;20024;-65
2023/04/25 01:55:26;;;;;;;16.33;6.38;;;;;;;8.53;67.33;101051.47;5091671;28;20020;-65
2023/04/25 01:57:51;;;;;;;13.85;6.28;;;;;;;8.51;67.22;101056.38;5081476;28;20372;-65
2023/04/25 02:00:17;;;;;;;14.40;7.30;;;;;;;8.48;67.27;101046.63;5072128;28;20016;-66
2023/04/25 02:02:42;;;;;;;17.98;7.93;;;;;;;8.51;67.29;101056.38;5070933;28;20107;-65
2023/04/25 02:05:07;;;;;;;19.48;7.35;;;;;;;8.48;67.83;101052.16;5085928;28;20107;-66
2023/04/25 02:07:32;;;;;;;15.48;6.93;;;;;;;8.48;67.61;101054.06;5083432;28;20475;-66
2023/04/25 02:09:58;;;;;;;17.55;7.00;;;;;;;8.47;67.31;101047.69;5091441;28;20028;-65
2023/04/25 02:12:24;;;;;;;18.77;7.45;;;;;;;8.45;67.29;101058.16;5079985;28;20071;-65
2023/04/25 02:14:49;;;;;;;16.20;7.50;;;;;;;8.44;67.31;101066.69;5069956;28;20608;-65
2023/04/25 02:17:15;;;;;;;19.55;7.57;;;;;;;8.42;67.12;101068.84;5078377;28;20115;-65
2023/04/25 02:19:41;;;;;;;18.48;6.80;;;;;;;8.43;67.51;101070.53;5088441;28;20131;-64
2023/04/25 02:22:06;;;;;;;18.40;6.93;;;;;;;8.42;67.26;101064.16;5070591;28;20066;-65
2023/04/25 02:24:33;;;;;;;17.73;7.25;;;;;;;8.40;67.44;101063.53;5071344;28;20024;-65
2023/04/25 02:26:59;;;;;;;18.77;7.90;;;;;;;8.35;66.98;101061.44;5073991;28;20043;-65
2023/04/25 02:29:24;;;;;;;20.35;7.13;;;;;;;8.34;67.85;101078.28;5070689;28;20029;-66
2023/04/25 02:31:49;;;;;;;20.30;6.60;;;;;;;8.34;67.74;101070.00;5073822;28;20502;-66
2023/04/25 02:34:15;;;;;;;18.08;7.07;;;;;;;8.32;67.64;101069.38;5071390;28;20028;-66
2023/04/25 02:36:40;;;;;;;13.73;7.15;;;;;;;8.28;67.13;101074.50;5069695;28;20039;-66
2023/04/25 02:39:06;;;;;;;16.17;6.82;;;;;;;8.29;66.99;101072.59;5070904;28;20040;-66
2023/04/25 02:41:31;;;;;;;19.30;6.78;;;;;;;8.24;67.34;101067.75;5074534;28;20024;-66
2023/04/25 02:43:56;;;;;;;14.68;6.97;;;;;;;8.26;67.68;101071.16;5085159;28;20031;-66
2023/04/25 02:46:22;;;;;;;17.55;6.85;;;;;;;8.25;66.86;101072.25;5091380;28;20467;-66
2023/04/25 02:48:47;;;;;;;15.95;6.43;;;;;;;8.25;66.75;101075.00;5090393;28;20016;-67
2023/04/25 02:51:13;;;;;;;15.30;7.05;;;;;;;8.20;67.05;101065.69;5090592;28;20032;-66
2023/04/25 02:53:39;;;;;;;16.38;6.63;;;;;;;8.19;67.10;101067.63;5089471;28;20032;-66
2023/04/25 02:56:05;;;;;;;18.38;7.25;;;;;;;8.19;67.16;101072.31;5091407;28;20024;-66
2023/04/25 02:58:30;;;;;;;15.60;6.53;;;;;;;8.14;66.73;101074.94;5085196;28;20371;-66
2023/04/25 03:00:55;;;;;;;18.75;6.50;;;;;;;8.15;67.48;101076.63;5079573;28;20078;-66
2023/04/25 03:03:24;;;;;;;17.40;6.47;;;;;;;8.13;66.71;101065.78;5077259;28;20036;-66
2023/04/25 03:05:50;;;;;;;16.25;6.82;;;;;;;8.12;66.79;101064.94;5088976;28;20081;-66
2023/04/25 03:08:16;;;;;;;16.10;6.20;;;;;;;8.09;67.17;101070.91;5073743;28;20472;-66
2023/04/25 03:10:41;;;;;;;18.33;6.78;;;;;;;8.09;67.28;101072.84;5071005;28;20042;-65
2023/04/25 03:13:07;;;;;;;13.98;6.68;;;;;;;8.07;66.33;101073.09;5081270;28;20043;-65
2023/04/25 03:15:32;;;;;;;18.58;6.13;;;;;;;8.08;67.14;101074.75;5085798;28;20123;-66
2023/04/25 03:17:57;;;;;;;15.93;6.60;;;;;;;8.05;66.88;101074.38;5071357;28;20047;-65
2023/04/25 03:20:23;;;;;;;19.48;5.97;;;;;;;8.03;67.14;101074.63;5069625;28;20533;-65
2023/04/25 03:22:48;;;;;;;15.52;6.55;;;;;;;8.02;66.78;101078.47;5069517;28;20038;-65
2023/04/25 03:25:13;;;;;;;17.48;6.07;;;;;;;8.04;67.05;101089.28;5069376;28;20021;-66
2023/04/25 03:27:39;;;;;;;12.93;5.80;;;;;;;8.02;67.58;101081.25;5070164;28;20033;-65
2023/04/25 03:30:05;;;;;;;14.73;6.25;;;;;;;8.01;67.23;101079.53;5070409;28;20119;-65
2023/04/25 03:32:30;;;;;;;18.00;6.38;;;;;;;8.01;67.35;101075.91;5066235;28;20110;-65
2023/04/25 03:34:55;;;;;;;15.00;6.60;;;;;;;8.02;67.04;101075.72;5086693;28;20439;-65
2023/04/25 03:37:21;;;;;;;20.55;6.45;;;;;;;8.01;68.18;101079.53;5086348;28;20040;-66
2023/04/25 03:39:46;;;;;;;14.43;6.03;;;;;;;8.03;67.54;101082.91;5068970;28;20040;-66
2023/04/25 03:42:12;;;;;;;19.30;6.32;;;;;;;8.02;67.19;101083.16;5086816;28;20106;-66
2023/04/25 03:44:37;;;;;;;16.98;6.20;;;;;;;8.04;67.91;101081.84;5088611;28;20027;-65
2023/04/25 03:47:02;;;;;;;16.58;6.28;;;;;;;8.01;67.68;101079.53;5074850;28;20064;-65
2023/04/25 03:49:27;;;;;;;16.63;7.07;;;;;;;8.03;67.45;101080.16;5068108;28;20108;-65
2023/04/25 03:51:53;;;;;;;17.70;6.20;;;;;;;8.05;67.33;101075.22;5083694;28;20111;-65
2023/04/25 03:54:18;;;;;;;19.45;6.82;;;;;;;8.03;68.23;101082.06;5090729;28;20038;-65
2023/04/25 03:56:43;;;;;;;14.45;6.22;;;;;;;8.02;68.02;101083.16;5084108;28;20036;-66
2023/04/25 03:59:09;;;;;;;20.08;6.32;;;;;;;7.99;67.39;101087.22;5074126;28;20376;-65
2023/04/25 04:01:35;;;;;;;22.75;6.65;;;;;;;8.04;68.22;101084.59;5080045;28;20020;-65
2023/04/25 04:04:00;;;;;;;16.95;5.97;;;;;;;8.03;67.75;101085.69;5086920;28;20024;-65
2023/04/25 04:06:25;;;;;;;20.75;6.38;;;;;;;8.00;67.22;101088.06;5072682;28;20438;-66
2023/04/25 04:08:51;;;;;;;17.70;6.05;;;;;;;8.02;67.96;101097.81;5089518;28;20042;-65
2023/04/25 04:11:16;;;;;;;17.27;6.53;;;;;;;8.02;67.77;101103.34;5079902;28;20039;-66
2023/04/25 04:13:41;;;;;;;20.98;6.63;;;;;;;8.03;67.47;101099.50;5090307;28;20508;-66
2023/04/25 04:16:06;;;;;;;17.10;5.90;;;;;;;8.02;67.75;101100.59;5080132;28;20051;-66
2023/04/25 04:18:33;;;;;;;18.90;5.90;;;;;;;8.01;67.84;101104.41;5087604;28;20032;-66
2023/04/25 04:20:58;;;;;;;22.15;6.65;;;;;;;8.00;67.32;101110.16;5076222;28;20039;-66
2023/04/25 04:23:24;;;;;;;18.52;6.30;;;;;;;7.98;67.60;101113.19;5093739;28;20032;-66
2023/04/25 04:25:49;;;;;;;19.17;7.00;;;;;;;8.02;67.73;101113.56;5081608;28;20038;-66
2023/04/25 04:28:15;;;;;;;16.27;5.93;;;;;;;8.00;68.06;101111.00;5084153;28;20028;-66
2023/04/25 04:30:42;;;;;;;23.20;6.43;;;;;;;7.99;67.64;101105.72;5073720;28;20060;-66
2023/04/25 04:33:08;;;;;;;17.27;6.18;;;;;;;8.01;67.73;101112.69;5073609;28;20032;-66
2023/04/25 04:35:33;;;;;;;16.08;6.30;;;;;;;8.01;67.40;101112.69;5072802;28;20082;-66
2023/04/25 04:37:58;;;;;;;15.23;6.00;;;;;;;8.04;67.66;101112.25;5073329;28;20097;-66
2023/04/25 04:40:25;;;;;;;24.38;6.32;;;;;;;8.03;67.62;101113.31;5073083;28;20073;-66
2023/04/25 04:42:50;;;;;;;17.60;5.97;;;;;;;8.05;68.46;101115.84;5091017;28;20032;-66
2023/04/25 04:45:16;;;;;;;13.65;5.82;;;;;;;8.01;67.86;101118.22;5082026;28;20028;-66
2023/04/25 04:47:41;;;;;;;17.10;5.90;;;;;;;8.02;67.55;101127.38;5083224;28;20078;-66
2023/04/25 04:50:09;;;;;;;18.90;6.20;;;;;;;8.02;67.85;101128.22;5076987;28;20092;-66
2023/04/25 04:52:35;;;;;;;18.00;5.65;;;;;;;8.01;67.50;101136.72;5083078;28;20051;-66
2023/04/25 04:55:01;;;;;;;19.70;5.82;;;;;;;8.00;67.81;101133.13;5093549;28;20460;-66
2023/04/25 04:57:27;;;;;;;24.27;6.18;;;;;;;8.01;67.48;101134.81;5075631;28;20043;-66
2023/04/25 04:59:53;;;;;;;13.18;5.68;;;;;;;7.98;67.58;101138.06;5073068;28;20081;-67
2023/04/25 05:02:21;;;;;;;17.65;5.88;;;;;;;8.01;67.63;101145.03;5074537;28;20107;-66
2023/04/25 05:04:46;;;;;;;23.80;6.03;;;;;;;7.99;67.48;101142.50;5070904;28;20412;-66
2023/04/25 05:07:12;;;;;;;20.02;6.07;;;;;;;8.02;67.88;101147.56;5078548;28;20048;-66
2023/04/25 05:09:37;;;;;;;16.00;5.88;;;;;;;8.01;68.09;101145.88;5075599;28;20631;-68
2023/04/25 05:12:03;;;;;;;19.95;5.50;;;;;;;8.01;67.44;101156.94;5080067;28;20032;-66
2023/04/25 05:14:28;;;;;;;21.70;6.10;;;;;;;8.01;68.17;101164.38;5066216;28;20033;-65
2023/04/25 05:16:53;;;;;;;15.75;6.32;;;;;;;8.04;67.67;101163.94;5080986;28;20032;-65
2023/04/25 05:19:19;;;;;;;21.02;6.75;;;;;;;8.06;67.89;101164.56;5074366;28;20028;-65
2023/04/25 05:21:44;;;;;;;19.65;5.75;;;;;;;8.07;67.57;101174.53;5075431;28;20045;-65
2023/04/25 05:24:09;;;;;;;18.30;6.05;;;;;;;8.10;67.90;101174.91;5074472;28;20537;-65
2023/04/25 05:26:35;;;;;;;17.15;6.28;;;;;;;8.10;67.54;101185.13;5079359;28;20566;-67
2023/04/25 05:29:00;;;;;;;19.42;5.78;;;;;;;8.14;67.64;101177.25;5072431;28;20033;-65
2023/04/25 05:31:26;;;;;;;15.40;5.90;;;;;;;8.11;67.53;101179.38;5073172;28;20067;-64
2023/04/25 05:33:51;;;;;;;16.90;6.15;;;;;;;8.07;67.37;101178.13;5073556;28;20040;-64
2023/04/25 05:36:18;;;;;;;17.77;5.70;;;;;;;8.09;66.98;101175.97;5071323;28;20027;-64
2023/04/25 05:38:44;;;;;;;17.60;6.45;;;;;;;8.15;67.77;101182.53;5070825;28;20027;-64
2023/04/25 05:41:09;;;;;;;22.42;6.45;;;;;;;8.18;67.46;101181.22;5068871;28;20037;-64
2023/04/25 05:43:35;;;;;;;17.17;5.68;;;;;;;8.15;67.07;101178.91;5070498;28;20032;-65
2023/04/25 05:46:00;;;;;;;21.10;5.65;;;;;;;8.20;66.99;101188.22;5067592;28;20020;-64
2023/04/25 05:48:25;;;;;;;16.73;5.28;;;;;;;8.24;67.05;101188.59;5075185;28;20551;-65
2023/04/25 05:50:51;;;;;;;19.85;5.85;;;;;;;8.25;67.17;101184.75;5084336;28;20035;-66
2023/04/25 05:53:17;;;;;;;20.55;6.15;;;;;;;8.24;67.56;101196.88;5069453;28;20032;-65
2023/04/25 05:55:46;;;;;;;18.42;5.60;;;;;;;8.28;67.35;101195.34;5072413;28;20379;-65
2023/04/25 05:58:11;;;;;;;25.50;6.88;;;;;;;8.29;67.21;101205.34;5070394;28;20036;-66
2023/04/25 06:00:36;;;;;;;18.77;6.72;;;;;;;8.33;66.94;101212.09;5086869;28;20113;-66
2023/04/25 06:03:02;;;;;;;20.77;6.47;;;;;;;8.34;67.18;101217.41;5077810;28;20115;-66
2023/04/25 06:05:27;;;;;;;20.92;6.53;;;;;;;8.35;67.22;101213.56;5084726;28;20052;-67
2023/04/25 06:07:53;;;;;;;20.30;6.07;;;;;;;8.41;66.48;101217.38;5088927;28;20066;-66
2023/04/25 06:10:18;;;;;;;19.10;6.30;;;;;;;8.43;66.73;101225.44;5075394;28;20047;-66
2023/04/25 06:12:43;;;;;;;16.42;5.85;;;;;;;8.46;66.47;101227.75;5074578;28;20352;-65
2023/04/25 06:15:10;;;;;;;17.00;5.68;;;;;;;8.41;67.10;101225.69;5070929;28;20041;-67
2023/04/25 06:17:35;;;;;;;15.10;5.97;;;;;;;8.47;66.95;101221.97;5054141;28;20048;-66
2023/04/25 06:20:01;;;;;;;17.60;5.80;;;;;;;8.51;66.53;101230.66;5069756;28;20036;-65
2023/04/25 06:22:26;;;;;;;20.10;5.70;;;;;;;8.46;65.97;101231.38;5057871;28;20087;-68
2023/04/25 06:24:52;;;;;;;19.20;5.38;;;;;;;8.46;65.60;101236.91;5063376;28;20024;-67
2023/04/25 06:27:17;;;;;;;12.85;4.90;;;;;;;8.49;66.11;101239.22;5057974;28;20020;-66
2023/04/25 06:29:42;;;;;;;19.05;5.70;;;;;;;8.59;65.02;101239.50;5055240;28;20036;-66
2023/04/25 06:32:08;;;;;;;15.13;5.93;;;;;;;8.70;64.86;101234.28;5062554;28;20383;-67
2023/04/25 06:34:33;;;;;;;14.60;5.05;;;;;;;8.82;64.32;101233.25;5066063;28;20021;-66
2023/04/25 06:36:58;;;;;;;10.15;4.25;;;;;;;8.94;63.25;101235.25;5066468;28;20036;-66
2023/04/25 06:39:25;;;;;;;12.00;4.65;;;;;;;9.05;62.48;101246.38;5061869;28;20126;-66
2023/04/25 06:41:50;;;;;;;10.98;4.05;;;;;;;9.13;60.95;101249.91;5064092;28;20063;-66
2023/04/25 06:44:16;;;;;;;16.17;3.63;;;;;;;9.21;60.45;101244.06;5069711;28;20123;-66
2023/04/25 06:46:41;;;;;;;9.57;3.20;;;;;;;9.33;60.32;101253.25;5062612;28;20047;-67
2023/04/25 06:49:06;;;;;;;8.18;2.92;;;;;;;9.38;59.44;101252.53;5066443;28;20029;-67
2023/04/25 06:51:31;;;;;;;9.70;3.05;;;;;;;9.47;59.04;101254.75;5060463;28;20128;-67
2023/04/25 06:53:57;;;;;;;13.98;2.80;;;;;;;9.52;58.68;101262.34;5061616;28;20537;-67
2023/04/25 06:56:23;;;;;;;10.52;2.97;;;;;;;9.58;57.15;101261.38;5055824;28;20028;-67
2023/04/25 06:58:48;;;;;;;10.45;3.05;;;;;;;9.65;57.47;101264.06;5050317;28;20060;-67
2023/04/25 07:01:14;;;;;;;9.93;2.90;;;;;;;9.71;56.86;101263.97;5060914;28;20033;-67
2023/04/25 07:03:39;;;;;;;12.63;3.78;;;;;;;9.79;56.42;101257.25;5064997;28;20027;-66
2023/04/25 07:06:05;;;;;;;9.98;2.60;;;;;;;9.83;55.88;101259.28;5067749;28;20031;-61
2023/04/25 07:08:30;;;;;;;7.68;3.10;;;;;;;9.89;56.27;101254.72;5065877;28;20075;-65
2023/04/25 07:10:55;;;;;;;11.20;3.05;;;;;;;10.02;56.52;101260.06;5049751;28;20032;-67
2023/04/25 07:13:20;;;;;;;7.28;2.95;;;;;;;10.09;56.19;101260.75;5069193;28;20039;-67
2023/04/25 07:15:47;;;;;;;9.40;3.28;;;;;;;10.20;56.29;101269.34;5068927;28;20040;-68
2023/04/25 07:18:13;;;;;;;11.82;3.78;;;;;;;10.29;55.81;101265.97;5069099;28;20036;-67
2023/04/25 07:20:38;;;;;;;9.52;2.65;;;;;;;10.37;54.71;101272.25;5070587;28;20078;-67
2023/04/25 07:23:04;;;;;;;8.70;2.60;;;;;;;10.44;54.47;101284.94;5068019;28;20036;-67
2023/04/25 07:25:30;;;;;;;10.02;2.70;;;;;;;10.51;54.59;101282.03;5066430;28;20020;-67
2023/04/25 07:27:56;;;;;;;6.88;2.10;;;;;;;10.55;54.05;101284.09;5080401;28;20020;-67
2023/04/25 07:30:27;;;;;;;9.68;2.63;;;;;;;10.60;52.31;101285.28;5083714;28;20039;-67
2023/04/25 07:32:52;;;;;;;7.00;2.20;;;;;;;10.63;52.45;101285.66;5083298;28;20110;-67
2023/04/25 07:35:18;;;;;;;8.68;2.47;;;;;;;10.61;53.26;101284.19;5086800;28;20756;-67
2023/04/25 07:37:43;;;;;;;8.98;2.55;;;;;;;10.60;53.48;101286.13;5086492;28;20032;-67
2023/04/25 07:40:09;;;;;;;9.82;2.83;;;;;;;10.57;53.72;101303.25;5084511;28;20078;-67
2023/04/25 07:42:35;;;;;;;9.32;2.83;;;;;;;10.63;53.67;101295.91;5089205;28;20063;-67
2023/04/25 07:45:02;;;;;;;8.13;2.20;;;;;;;10.63;53.29;101298.69;5071029;28;20032;-66
2023/04/25 07:47:27;;;;;;;9.68;2.40;;;;;;;10.62;53.20;101308.09;5081803;28;20027;-67
2023/04/25 07:49:53;;;;;;;9.75;2.45;;;;;;;10.67;53.74;101306.28;5081849;28;20126;-66
2023/04/25 07:52:18;;;;;;;10.20;2.60;;;;;;;10.68;53.17;101312.69;5087356;28;20093;-67
2023/04/25 07:54:43;;;;;;;9.23;2.38;;;;;;;10.77;53.39;101305.69;5088533;28;20433;-66
2023/04/25 07:57:09;;;;;;;8.13;2.45;;;;;;;10.87;53.03;101313.38;5087973;28;20112;-67
2023/04/25 07:59:34;;;;;;;8.98;2.22;;;;;;;10.87;52.19;101321.72;5089417;28;20035;-67
2023/04/25 08:02:00;;;;;;;8.38;2.40;;;;;;;10.78;52.26;101321.25;5089711;28;20035;-66
2023/04/25 08:04:26;;;;;;;7.28;2.15;;;;;;;10.79;52.12;101328.47;5081874;28;20391;-66
2023/04/25 08:06:52;;;;;;;8.70;2.55;;;;;;;10.80;51.82;101316.28;5089212;28;20111;-67
2023/04/25 08:09:18;;;;;;;10.75;2.35;;;;;;;10.80;52.17;101322.66;5089641;28;20028;-65
2023/04/25 08:11:43;;;;;;;9.27;2.38;;;;;;;10.70;50.98;101325.25;5087990;28;20498;-65
2023/04/25 08:14:09;;;;;;;11.30;2.50;;;;;;;10.56;50.49;101332.94;5087208;28;20089;-65
2023/04/25 08:16:34;;;;;;;13.13;2.75;;;;;;;10.48;50.98;101333.31;5089305;28;20068;-66
2023/04/25 08:19:00;;;;;;;11.85;2.78;;;;;;;10.41;51.91;101334.50;5089723;28;20440;-66
2023/04/25 08:21:27;;;;;;;8.55;2.25;;;;;;;10.39;51.90;101351.41;5080112;28;20032;-66
2023/04/25 08:23:52;;;;;;;12.60;2.47;;;;;;;10.35;52.71;101339.09;5069532;28;20078;-66
2023/04/25 08:26:19;;;;;;;8.77;2.70;;;;;;;10.37;53.80;101336.94;5069244;28;21604;-65
2023/04/25 08:28:44;;;;;;;9.48;2.63;;;;;;;10.40;53.96;101355.03;5086872;28;20046;-66
2023/04/25 08:31:10;;;;;;;6.93;2.63;;;;;;;10.39;54.01;101361.69;5088611;28;20028;-66
2023/04/25 08:33:35;;;;;;;10.45;2.47;;;;;;;10.40;53.12;101357.81;5089366;28;20039;-66
2023/04/25 08:36:00;;;;;;;14.50;2.83;;;;;;;10.41;52.43;101370.59;5088135;28;20419;-66
2023/04/25 08:38:26;;;;;;;12.70;2.65;;;;;;;10.44;53.06;101375.66;5089040;28;20022;-66
2023/04/25 08:40:51;;;;;;;9.65;2.30;;;;;;;10.41;52.73;101365.03;5092932;28;20061;-66
2023/04/25 08:43:18;;;;;;;9.90;2.45;;;;;;;10.38;54.09;101366.38;5079760;28;20021;-66
2023/04/25 08:45:44;;;;;;;8.15;2.03;;;;;;;10.46;53.91;101362.41;5086449;28;20024;-66
2023/04/25 08:48:19;;;;;;;11.20;2.55;;;;;;;10.47;53.87;101370.50;5074823;28;20082;-66
2023/04/25 08:50:53;;;;;;;12.23;2.70;;;;;;;10.51;54.21;101379.19;5071651;28;20571;-66
2023/04/25 08:53:25;;;;;;;9.80;2.40;;;;;;;10.50;53.68;101381.13;5072569;28;20020;-67
2023/04/25 08:55:53;;;;;;;9.77;2.08;;;;;;;10.57;54.11;101386.53;5072030;28;20039;-66
2023/04/25 08:58:20;;;;;;;9.27;2.30;;;;;;;10.61;53.62;101392.44;5081777;28;20057;-66
2023/04/25 09:00:46;;;;;;;7.82;2.15;;;;;;;10.65;54.03;101399.22;5081360;28;20108;-66
2023/04/25 09:03:12;;;;;;;9.40;2.38;;;;;;;10.68;54.21;101407.91;5071765;28;20062;-66
2023/04/25 09:05:40;;;;;;;11.02;3.15;;;;;;;10.71;54.15;101415.75;5072530;28;20439;-67
2023/04/25 09:08:05;;;;;;;11.68;2.63;;;;;;;10.79;53.87;101418.19;5071433;28;20479;-67
2023/04/25 09:10:31;;;;;;;12.00;2.85;;;;;;;10.83;52.90;101413.00;5071400;28;20090;-66
2023/04/25 09:13:26;;;;;;;8.38;2.10;;;;;;;10.95;53.92;101416.59;5072349;28;20066;-66
2023/04/25 09:15:54;;;;;;;8.82;2.00;;;;;;;10.92;51.27;101424.56;5071811;28;20048;-67
2023/04/25 09:18:28;;;;;;;6.82;2.17;;;;;;;10.94;50.58;101425.19;5072005;28;20036;-67
2023/04/25 09:20:54;;;;;;;7.82;2.17;;;;;;;10.96;50.86;101429.41;5072178;28;20037;-67
2023/04/25 09:23:21;;;;;;;7.90;2.03;;;;;;;10.98;50.68;101432.81;5071434;28;20468;-67
2023/04/25 09:25:51;;;;;;;14.15;2.42;;;;;;;10.98;50.93;101431.97;5071704;28;20078;-67
2023/04/25 09:28:23;;;;;;;12.32;2.13;;;;;;;11.05;50.50;101439.09;5074779;28;20040;-66
2023/04/25 09:30:48;;;;;;;9.15;1.90;;;;;;;11.09;50.14;101439.44;5091432;28;20039;-66
2023/04/25 09:33:13;;;;;;;8.00;2.30;;;;;;;11.09;49.89;101442.22;5091784;28;20028;-67
2023/04/25 09:35:43;;;;;;;10.07;2.20;;;;;;;11.16;50.48;101440.19;5091612;28;20028;-66
2023/04/25 09:38:14;;;;;;;8.90;2.25;;;;;;;11.22;51.17;101441.13;5091300;28;20035;-66
2023/04/25 09:40:44;;;;;;;10.13;2.05;;;;;;;11.22;50.00;101439.19;5091599;28;20103;-66
2023/04/25 09:43:18;;;;;;;6.18;1.90;;;;;;;11.28;49.16;101445.72;5091091;28;20024;-66
2023/04/25 09:45:47;;;;;;;8.15;2.38;;;;;;;11.35;48.93;101440.84;5089730;28;20145;-66
2023/04/25 09:48:18;;;;;;;7.15;2.05;;;;;;;11.45;49.25;101446.66;5070548;28;20043;-66
2023/04/25 09:50:43;;;;;;;11.07;2.22;;;;;;;11.50;49.83;101448.69;5071458;28;20501;-66
2023/04/25 09:53:09;;;;;;;6.72;2.25;;;;;;;11.39;49.09;101444.84;5079820;28;20027;-67
2023/04/25 09:55:35;;;;;;;7.03;2.25;;;;;;;11.40;48.85;101449.31;5092039;28;20035;-66
2023/04/25 09:58:05;;;;;;;7.60;2.05;;;;;;;11.34;49.34;101447.50;5090638;28;20082;-66
2023/04/25 10:00:32;;;;;;;7.95;2.20;;;;;;;11.22;47.55;101449.47;5091535;28;20026;-66
2023/04/25 10:03:01;;;;;;;6.40;2.03;;;;;;;11.12;47.54;101461.19;5091236;28;20035;-66
2023/04/25 10:05:30;;;;;;;5.03;1.83;;;;;;;11.07;47.45;101463.84;5072486;28;20063;-66
2023/04/25 10:07:55;;;;;;;6.97;2.00;;;;;;;11.13;47.96;101445.38;5079686;28;20016;-66
2023/04/25 10:10:25;;;;;;;6.70;2.08;;;;;;;11.18;47.66;101456.59;5091112;28;20050;-66
2023/04/25 10:12:51;;;;;;;5.25;2.10;;;;;;;11.17;46.17;101455.75;5084505;28;20077;-67
2023/04/25 10:15:17;;;;;;;6.90;2.10;;;;;;;11.15;46.81;101454.28;5079571;28;20449;-66
2023/04/25 10:17:43;;;;;;;5.28;1.80;;;;;;;11.24;46.68;101461.19;5091218;28;20067;-66
2023/04/25 10:20:10;;;;;;;9.40;2.33;;;;;;;11.42;47.36;101460.19;5075260;28;20040;-66
2023/04/25 10:22:39;;;;;;;6.38;1.50;;;;;;;11.58;46.72;101453.03;5071978;28;20028;-67
2023/04/25 10:25:05;;;;;;;5.00;1.55;;;;;;;11.75;46.92;101456.72;5070403;28;20044;-66
2023/04/25 10:27:31;;;;;;;5.75;1.80;;;;;;;11.80;44.82;101445.72;5080396;28;20021;-66
2023/04/25 10:30:10;;;;;;;5.95;1.65;;;;;;;11.80;45.79;101459.63;5083311;28;20050;-65
2023/04/25 10:32:36;;;;;;;4.75;1.58;;;;;;;11.86;45.27;101455.03;5085119;28;20372;-66
2023/04/25 10:35:19;;;;;;;5.95;1.80;;;;;;;11.90;46.21;101454.28;5069550;28;20052;-66
2023/04/25 10:38:00;;;;;;;;;;;;;;;11.97;48.47;101457.78;5078200;28;20232;-65
2023/04/25 10:40:26;;;;;;;3.42;1.30;;;;;;;11.87;44.66;101463.16;5079602;28;19912;-66
2023/04/25 10:42:54;;;;;;;4.65;1.50;;;;;;;11.89;44.87;101469.28;5071496;28;20058;-65
2023/04/25 10:45:20;;;;;;;5.10;1.80;;;;;;;11.91;45.14;101464.34;5079434;28;20495;-67
2023/04/25 10:47:45;;;;;;;4.85;1.50;;;;;;;11.93;45.63;101466.88;5080124;28;20029;-66
2023/04/25 10:50:14;;;;;;;6.25;1.80;;;;;;;11.95;45.59;101465.53;5075836;28;20027;-67
2023/04/25 10:52:42;;;;;;;4.18;1.50;;;;;;;11.98;45.87;101456.66;5088781;28;20043;-68
2023/04/25 10:55:08;;;;;;;7.55;2.25;;;;;;;11.99;46.14;101458.38;5080702;28;20690;-66
2023/04/25 10:57:46;;;;;;;6.25;1.83;;;;;;;12.00;46.97;101459.22;5074594;28;20032;-67
2023/04/25 11:00:11;;;;;;;5.35;1.90;;;;;;;12.15;47.68;101456.75;5079315;28;20115;-67
2023/04/25 11:02:58;;;;;;;4.55;1.60;;;;;;;12.20;47.67;101454.06;5078560;28;20110;-65
2023/04/25 11:05:31;;;;;;;6.55;2.05;;;;;;;12.17;46.49;101454.53;5078178;28;20032;-65
2023/04/25 11:07:57;;;;;;;6.38;1.90;;;;;;;12.15;45.99;101464.25;5072201;28;20071;-64
2023/04/25 11:10:31;;;;;;;4.05;1.80;;;;;;;12.09;46.24;101465.22;5074136;28;20031;-66
2023/04/25 11:12:57;;;;;;;4.57;1.60;;;;;;;12.04;46.66;101468.75;5074206;28;20103;-64
2023/04/25 11:15:23;;;;;;;6.53;1.60;;;;;;;12.00;45.86;101479.53;5074412;28;20094;-65
2023/04/25 11:17:51;;;;;;;8.52;2.05;;;;;;;11.92;46.88;101484.66;5085424;28;20483;-66
2023/04/25 11:20:19;;;;;;;6.43;1.85;;;;;;;11.85;47.46;101487.56;5070661;28;20472;-67